SBNTSBFN

Guest
Details From SBNT - Augusto Severo
To SBFN - Fernando De Noronha
Flight Number -
Tags generated
Created
Modified
Stats Distance 209 nm / 388 km
Max Altitude 13,300 ft / 4,054 m
Waypoints 4
Social Downloads 0
Likes 0
Share VATSIM

Download

Looking for another format? Having issues loading an existing format? Contact us
Advertisement - Login to hide

Notes

Basic altitude profile: - Ascent Rate: 2100ft/min - Ascent Speed: 250kts - Cruise Altitude: 330000ft - Cruise Speed: 420kts - Descent Rate: 1500ft/min - Descent Speed: 250kts Options: - Use NATs: yes - Use PACOTS: yes - Use low airways: yes - Use high airways: yes

Route

SBNT OGPER W40 FNO SBFN

ID Type Via Altitude Latitude Longitude Leg Dist Tot Dist Heading (true) Name
O SBNT APT - 0 ft / 0 m -5.91175˚ -35.24771˚ - 0 nm - Augusto Severo
OGPER FIX - 13,300 ft / 4,054 m -5.51767˚ -34.70533˚ 40 nm 40 nm 54° / 54° -
FNO VOR W40 (AWY-LO) 3,500 ft / 1,067 m -3.87020˚ -32.42932˚ 168 nm 208 nm 54° / 54° FERNANDO VOR-DME
O SBFN APT - 0 ft / 0 m -3.85493˚ -32.42333˚ 0 nm 209 nm 21° / 21° Fernando De Noronha

Altitude Profile

Advertisement - Login to hide

Weather


0- 5 10 15 20 25 30 35+ Temperature / ° C

Clouds and Precipitation
Forecast for 2017-12-14 00:00 UTC. Updated 2 hours ago

Ground ~20,000 ft ~40,000 ft Winds

SBNT

Details ICAO SBNT (NAT)
Name Augusto Severo
Region Brazil
Timezone America/Fortaleza (UTC-3.0)
Stats Elevation 169 ft / 52 m (AMSL)
Location -5.911747° -35.247709°
Runways 3
Magnetic Variation 21.393° W

METAR

SBNT 140100Z 12010KT 9000 -RA BKN021 SCT049 24/22 Q1015

Decode

TAF

TAF TAF SBNT 132200Z 1400/1424 12007KT 9999 SCT020 TN25/1408Z TX31/1414Z BECMG 1409/1411 11014KT BKN022 BECMG 1413/1414 SCT030 BECMG 1420/1421 10008KT RMK PEU

Decode

Departure Runways

ID Width Length Bearing (true) Bearing (mag) Surface Threshold Offset Overrun Length
12 148 ft / 45 m 5,972 ft / 1,820 m 98.98° 120.37° Asphalt 0 ft / 0 m 0 ft / 0 m
16L 148 ft / 45 m 8,561 ft / 2,609 m 141.08° 162.47° Asphalt 0 ft / 0 m 279 ft / 85 m
16R 148 ft / 45 m 5,912 ft / 1,802 m 141.12° 162.51° Asphalt 0 ft / 0 m 1,350 ft / 411 m
30 148 ft / 45 m 5,972 ft / 1,820 m 278.98° 300.37° Asphalt 0 ft / 0 m 0 ft / 0 m
34L 148 ft / 45 m 5,912 ft / 1,802 m 321.12° 342.51° Asphalt 0 ft / 0 m 0 ft / 0 m
34R 148 ft / 45 m 8,561 ft / 2,609 m 321.08° 342.47° Asphalt 0 ft / 0 m 0 ft / 0 m

SBFN

Details ICAO SBFN (FEN)
Name Fernando De Noronha
Region Brazil
Timezone America/Noronha (UTC-2.0)
Stats Elevation 180 ft / 55 m (AMSL)
Location -3.854928° -32.423335°
Runways 1
Magnetic Variation 20.049° W

METAR

Not found

TAF

TAF SBFN 132200Z 1400/1412 12011KT 9999 SCT017 TN26/1408Z TX28/1411Z RMK PEU

Decode

Destination Runways

ID Width Length Bearing (true) Bearing (mag) Surface Threshold Offset Overrun Length
12 148 ft / 45 m 6,070 ft / 1,850 m 93.99° 114.04° Asphalt 0 ft / 0 m 0 ft / 0 m
30 148 ft / 45 m 6,070 ft / 1,850 m 273.98° 294.03° Asphalt 0 ft / 0 m 0 ft / 0 m

Popular Alternatives